Terminal Aerodrome Forecast
Issued by NWS Tuscon, AZ

Home | Current Version | Previous Version | Text Only | Print | Product List | Glossary On
Versions: 1 2 3 4 5 6 7 8 9 10 11 12 13 14 15
000
FTUS45 KTWC 270520
TAFDUG
TAF
KDUG 270520Z 2706/2806 09018G25KT P6SM SCT080 BKN110
     FM271200 06015KT P6SM VCSH FEW040 SCT070 BKN090
     FM271900 09012KT P6SM VCSH BKN060 BKN120
     FM280200 10008KT P6SM SCT060 BKN120=

USA.gov is the U.S. government's official web portal to all federal, state and local government web resources and services.